Аэропорт: Шпаковское. Ставрополь

ICAO: URMT

METAR:
2022-01-28 08:00:00
URMT 280800Z 24002MPS 9999 OVC032 M04/M06 Q1017 R25/520150 NOSIG RMK QFE724
METAR:
2022-01-28 05:00:00
TAF URMT 280500Z 2806/2815 22003G09MPS 9999 SCT010 BKN030 TEMPO 2806/2815 20003G08MPS 5000 -SN BKN010 BKN020